Aviation Digital Data Service (ADDS)

Output produced by METARs form (1314 UTC 23 January 2019)
found at http://www.aviationweather.gov/metar/data/
 
METAR text: EGNS 231250Z 29007KT 9999 FEW020 06/02 Q1004 NOSIG
Conditions at: EGNS (ISLE OF MAN/RONA, GB) observed 1250 UTC 23 January 2019
Temperature: 6.0°C (43°F)
Dewpoint: 2.0°C (36°F) [RH = 75%]
Pressure (altimeter): 29.65 inches Hg (1004.0 mb)
Winds: from the WNW (290 degrees) at 8 MPH (7 knots; 3.6 m/s)
Visibility: 6 or more miles (10+ km)
Ceiling: at least 12,000 feet AGL
Clouds: few clouds at 2000 feet AGL
Weather: no significant weather observed at this time

METAR text: EGNS 231220Z 28009KT 9999 FEW020 05/02 Q1004 NOSIG
Conditions at: EGNS (ISLE OF MAN/RONA, GB) observed 1220 UTC 23 January 2019
Temperature: 5.0°C (41°F)
Dewpoint: 2.0°C (36°F) [RH = 81%]
Pressure (altimeter): 29.65 inches Hg (1004.0 mb)
Winds: from the W (280 degrees) at 10 MPH (9 knots; 4.6 m/s)
Visibility: 6 or more miles (10+ km)
Ceiling: at least 12,000 feet AGL
Clouds: few clouds at 2000 feet AGL
Weather: no significant weather observed at this time

METAR text: EGNS 231150Z 31006KT 9999 FEW020 06/02 Q1004 NOSIG
Conditions at: EGNS (ISLE OF MAN/RONA, GB) observed 1150 UTC 23 January 2019
Temperature: 6.0°C (43°F)
Dewpoint: 2.0°C (36°F) [RH = 75%]
Pressure (altimeter): 29.65 inches Hg (1004.0 mb)
Winds: from the NW (310 degrees) at 7 MPH (6 knots; 3.1 m/s)
Visibility: 6 or more miles (10+ km)
Ceiling: at least 12,000 feet AGL
Clouds: few clouds at 2000 feet AGL
Weather: no significant weather observed at this time

METAR text: EGNS 231120Z 30005KT 9999 FEW018 05/02 Q1004 NOSIG
Conditions at: EGNS (ISLE OF MAN/RONA, GB) observed 1120 UTC 23 January 2019
Temperature: 5.0°C (41°F)
Dewpoint: 2.0°C (36°F) [RH = 81%]
Pressure (altimeter): 29.65 inches Hg (1004.0 mb)
Winds: from the WNW (300 degrees) at 6 MPH (5 knots; 2.6 m/s)
Visibility: 6 or more miles (10+ km)
Ceiling: at least 12,000 feet AGL
Clouds: few clouds at 1800 feet AGL
Weather: no significant weather observed at this time

METAR text: EGNS 231050Z 31008KT 9999 FEW018 05/01 Q1003 NOSIG
Conditions at: EGNS (ISLE OF MAN/RONA, GB) observed 1050 UTC 23 January 2019
Temperature: 5.0°C (41°F)
Dewpoint: 1.0°C (34°F) [RH = 75%]
Pressure (altimeter): 29.62 inches Hg (1003.0 mb)
Winds: from the NW (310 degrees) at 9 MPH (8 knots; 4.1 m/s)
Visibility: 6 or more miles (10+ km)
Ceiling: at least 12,000 feet AGL
Clouds: few clouds at 1800 feet AGL
Weather: no significant weather observed at this time

METAR text: EGNS 231020Z 31007KT 9999 VCSH FEW018 05/02 Q1003 NOSIG
Conditions at: EGNS (ISLE OF MAN/RONA, GB) observed 1020 UTC 23 January 2019
Temperature: 5.0°C (41°F)
Dewpoint: 2.0°C (36°F) [RH = 81%]
Pressure (altimeter): 29.62 inches Hg (1003.0 mb)
Winds: from the NW (310 degrees) at 8 MPH (7 knots; 3.6 m/s)
Visibility: 6 or more miles (10+ km)
Ceiling: at least 12,000 feet AGL
Clouds: few clouds at 1800 feet AGL
Weather: VCSH  (showers in vicinity)

METAR text: EGNS 230950Z 27005KT 230V310 9999 VCSH FEW014 SCT020 04/02 Q1003 TEMPO 5000 SHRASN BKN015CB
Conditions at: EGNS (ISLE OF MAN/RONA, GB) observed 0950 UTC 23 January 2019
Temperature: 4.0°C (39°F)
Dewpoint: 2.0°C (36°F) [RH = 87%]
Pressure (altimeter): 29.62 inches Hg (1003.0 mb)
Winds: from the W (270 degrees) at 6 MPH (5 knots; 2.6 m/s)
Visibility: 6 or more miles (10+ km)
Ceiling: at least 12,000 feet AGL
Clouds: few clouds at 1400 feet AGL
scattered clouds at 2000 feet AGL
Weather: VCSH  (showers in vicinity)

METAR text: EGNS 230920Z VRB03KT 9999 VCSH FEW014 FEW017CB SCT023 BKN040 03/02 Q1003 TEMPO 5000 SHRASN BKN015CB
Conditions at: EGNS (ISLE OF MAN/RONA, GB) observed 0920 UTC 23 January 2019
Temperature: 3.0°C (37°F)
Dewpoint: 2.0°C (36°F) [RH = 93%]
Pressure (altimeter): 29.62 inches Hg (1003.0 mb)
Winds: variable direction winds at 3 MPH (3 knots; 1.5 m/s)
Visibility: 6 or more miles (10+ km)
Ceiling: 4000 feet AGL
Clouds: few clouds at 1400 feet AGL
few clouds at 1700 feet AGL
scattered clouds at 2300 feet AGL
broken clouds at 4000 feet AGL
Weather: VCSH  (showers in vicinity)

METAR text: EGNS 230850Z 28004KT 240V320 9999 VCSH FEW017CB SCT022 BKN040 03/02 Q1003 RESHSN TEMPO 5000 SHRASN BKN015CB
Conditions at: EGNS (ISLE OF MAN/RONA, GB) observed 0850 UTC 23 January 2019
Temperature: 3.0°C (37°F)
Dewpoint: 2.0°C (36°F) [RH = 93%]
Pressure (altimeter): 29.62 inches Hg (1003.0 mb)
Winds: from the W (280 degrees) at 5 MPH (4 knots; 2.1 m/s)
Visibility: 6 or more miles (10+ km)
Ceiling: 4000 feet AGL
Clouds: few clouds at 1700 feet AGL
scattered clouds at 2200 feet AGL
broken clouds at 4000 feet AGL
Weather: VCSH  (showers in vicinity)

METAR text: EGNS 230820Z 28003KT 9999 VCSH FEW014 FEW017CB SCT020 BKN040 03/01 Q1002 TEMPO 5000 SHRASN BKN015CB
Conditions at: EGNS (ISLE OF MAN/RONA, GB) observed 0820 UTC 23 January 2019
Temperature: 3.0°C (37°F)
Dewpoint: 1.0°C (34°F) [RH = 87%]
Pressure (altimeter): 29.59 inches Hg (1002.0 mb)
Winds: from the W (280 degrees) at 3 MPH (3 knots; 1.5 m/s)
Visibility: 6 or more miles (10+ km)
Ceiling: 4000 feet AGL
Clouds: few clouds at 1400 feet AGL
few clouds at 1700 feet AGL
scattered clouds at 2000 feet AGL
broken clouds at 4000 feet AGL
Weather: VCSH  (showers in vicinity)

METAR text: EGNS 230750Z 32006KT 9999 5000S SHRASN SCT017CB BKN040 03/00 Q1002 NOSIG
Conditions at: EGNS (ISLE OF MAN/RONA, GB) observed 0750 UTC 23 January 2019
Temperature: 3.0°C (37°F)
Dewpoint: 0.0°C (32°F) [RH = 81%]
Pressure (altimeter): 29.59 inches Hg (1002.0 mb)
Winds: from the NW (320 degrees) at 7 MPH (6 knots; 3.1 m/s)
Visibility: 6 or more miles (10+ km)
Ceiling: 4000 feet AGL
Clouds: scattered clouds at 1700 feet AGL
broken clouds at 4000 feet AGL
Weather: SHRA SN  (rain showers, moderate snow)

METAR text: EGNS 230720Z VRB02KT 9999 FEW016CB 02/01 Q1002 TEMPO 5000 SHRASN BKN014CB
Conditions at: EGNS (ISLE OF MAN/RONA, GB) observed 0720 UTC 23 January 2019
Temperature: 2.0°C (36°F)
Dewpoint: 1.0°C (34°F) [RH = 93%]
Pressure (altimeter): 29.59 inches Hg (1002.0 mb)
Winds: variable direction winds at 2 MPH (2 knots; 1.0 m/s)
Visibility: 6 or more miles (10+ km)
Ceiling: at least 12,000 feet AGL
Clouds: few clouds at 1600 feet AGL
Weather: no significant weather observed at this time

METAR text: EGNS 230650Z 35009KT 260V050 8000 SHRASN BKN016CB 03/01 Q1001 TEMPO 4000 BKN013CB
Conditions at: EGNS (ISLE OF MAN/RONA, GB) observed 0650 UTC 23 January 2019
Temperature: 3.0°C (37°F)
Dewpoint: 1.0°C (34°F) [RH = 87%]
Pressure (altimeter): 29.56 inches Hg (1001.0 mb)
Winds: from the N (350 degrees) at 10 MPH (9 knots; 4.6 m/s)
Visibility: 5 miles ( 8 km)
Ceiling: 1600 feet AGL
Clouds: broken clouds at 1600 feet AGL
Weather: SHRA SHSN  (rain showers, snow showers)

METAR text: EGNS 230620Z VRB03KT 9999 FEW014 SCT018 02/01 Q1001 TEMPO 4000 SHRASN BKN013
Conditions at: EGNS (ISLE OF MAN/RONA, GB) observed 0620 UTC 23 January 2019
Temperature: 2.0°C (36°F)
Dewpoint: 1.0°C (34°F) [RH = 93%]
Pressure (altimeter): 29.56 inches Hg (1001.0 mb)
Winds: variable direction winds at 3 MPH (3 knots; 1.5 m/s)
Visibility: 6 or more miles (10+ km)
Ceiling: at least 12,000 feet AGL
Clouds: few clouds at 1400 feet AGL
scattered clouds at 1800 feet AGL
Weather: no significant weather observed at this time

METAR text: EGNS 230550Z VRB02KT 9999 FEW020 SCT024 02/01 Q1001 TEMPO 4000 SHRASN BKN013
Conditions at: EGNS (ISLE OF MAN/RONA, GB) observed 0550 UTC 23 January 2019
Temperature: 2.0°C (36°F)
Dewpoint: 1.0°C (34°F) [RH = 93%]
Pressure (altimeter): 29.56 inches Hg (1001.0 mb)
Winds: variable direction winds at 2 MPH (2 knots; 1.0 m/s)
Visibility: 6 or more miles (10+ km)
Ceiling: at least 12,000 feet AGL
Clouds: few clouds at 2000 feet AGL
scattered clouds at 2400 feet AGL
Weather: no significant weather observed at this time

METAR text: EGNS 230520Z VRB02KT 9999 -SHRA FEW013 SCT020 03/01 Q1000 TEMPO 4000 SHRASN BKN013
Conditions at: EGNS (ISLE OF MAN/RONA, GB) observed 0520 UTC 23 January 2019
Temperature: 3.0°C (37°F)
Dewpoint: 1.0°C (34°F) [RH = 87%]
Pressure (altimeter): 29.53 inches Hg (1000.0 mb)
Winds: variable direction winds at 2 MPH (2 knots; 1.0 m/s)
Visibility: 6 or more miles (10+ km)
Ceiling: at least 12,000 feet AGL
Clouds: few clouds at 1300 feet AGL
scattered clouds at 2000 feet AGL
Weather: -SHRA  (light rain showers)

METAR text: EGNS 230450Z 34010KT 280V020 4000 -SHRA FEW013 SCT016 03/01 Q1000
Conditions at: EGNS (ISLE OF MAN/RONA, GB) observed 0450 UTC 23 January 2019
Temperature: 3.0°C (37°F)
Dewpoint: 1.0°C (34°F) [RH = 87%]
Pressure (altimeter): 29.53 inches Hg (1000.0 mb)
Winds: from the NNW (340 degrees) at 12 MPH (10 knots; 5.1 m/s)
Visibility: 2.49 miles (4.01 km)
Ceiling: at least 12,000 feet AGL
Clouds: few clouds at 1300 feet AGL
scattered clouds at 1600 feet AGL
Weather: -SHRA  (light rain showers)

METAR text: EGNS 230350Z 34007KT 290V040 9999 FEW017 03/01 Q0999
Conditions at: EGNS (ISLE OF MAN/RONA, GB) observed 0350 UTC 23 January 2019
Temperature: 3.0°C (37°F)
Dewpoint: 1.0°C (34°F) [RH = 87%]
Pressure (altimeter): 29.50 inches Hg (999.0 mb)
Winds: from the NNW (340 degrees) at 8 MPH (7 knots; 3.6 m/s)
Visibility: 6 or more miles (10+ km)
Ceiling: at least 12,000 feet AGL
Clouds: few clouds at 1700 feet AGL
Weather: no significant weather observed at this time

METAR text: EGNS 230250Z 29004KT 240V310 9999 -SHRA FEW018 SCT021 03/01 Q0999 RESHSN RESHGS
Conditions at: EGNS (ISLE OF MAN/RONA, GB) observed 0250 UTC 23 January 2019
Temperature: 3.0°C (37°F)
Dewpoint: 1.0°C (34°F) [RH = 87%]
Pressure (altimeter): 29.50 inches Hg (999.0 mb)
Winds: from the WNW (290 degrees) at 5 MPH (4 knots; 2.1 m/s)
Visibility: 6 or more miles (10+ km)
Ceiling: at least 12,000 feet AGL
Clouds: few clouds at 1800 feet AGL
scattered clouds at 2100 feet AGL
Weather: -SHRA SHGS  (light rain showers, small hail or graupel showers)

METAR text: EGNS 230150Z VRB03KT 9999 FEW012 SCT018 01/00 Q0999 RESHSN RESHGS
Conditions at: EGNS (ISLE OF MAN/RONA, GB) observed 0150 UTC 23 January 2019
Temperature: 1.0°C (34°F)
Dewpoint: 0.0°C (32°F) [RH = 93%]
Pressure (altimeter): 29.50 inches Hg (999.0 mb)
Winds: variable direction winds at 3 MPH (3 knots; 1.5 m/s)
Visibility: 6 or more miles (10+ km)
Ceiling: at least 12,000 feet AGL
Clouds: few clouds at 1200 feet AGL
scattered clouds at 1800 feet AGL
Weather: SHGS  (small hail or graupel showers)

METAR text: EGNS 230050Z 31008KT 270V010 4000 SHRAGS FEW010 SCT016CB BKN027 03/01 Q0999 RESHRA RESHGS
Conditions at: EGNS (ISLE OF MAN/RONA, GB) observed 0050 UTC 23 January 2019
Temperature: 3.0°C (37°F)
Dewpoint: 1.0°C (34°F) [RH = 87%]
Pressure (altimeter): 29.50 inches Hg (999.0 mb)
Winds: from the NW (310 degrees) at 9 MPH (8 knots; 4.1 m/s)
Visibility: 2.49 miles (4.01 km)
Ceiling: 2700 feet AGL
Clouds: few clouds at 1000 feet AGL
scattered clouds at 1600 feet AGL
broken clouds at 2700 feet AGL
Weather: SHRA SHGS SHGS  (rain showers, small hail or graupel showers, small hail or graupel showers)

METAR text: EGNS 222350Z 31006KT 230V040 9999 FEW017CB BKN021 04/01 Q0998
Conditions at: EGNS (ISLE OF MAN/RONA, GB) observed 2350 UTC 22 January 2019
Temperature: 4.0°C (39°F)
Dewpoint: 1.0°C (34°F) [RH = 81%]
Pressure (altimeter): 29.47 inches Hg (998.0 mb)
Winds: from the NW (310 degrees) at 7 MPH (6 knots; 3.1 m/s)
Visibility: 6 or more miles (10+ km)
Ceiling: 2100 feet AGL
Clouds: few clouds at 1700 feet AGL
broken clouds at 2100 feet AGL
Weather: no significant weather observed at this time

METAR text: EGNS 222250Z 34006KT 300V050 9999 FEW018CB SCT020 03/01 Q0997
Conditions at: EGNS (ISLE OF MAN/RONA, GB) observed 2250 UTC 22 January 2019
Temperature: 3.0°C (37°F)
Dewpoint: 1.0°C (34°F) [RH = 87%]
Pressure (altimeter): 29.44 inches Hg (997.0 mb)
Winds: from the NNW (340 degrees) at 7 MPH (6 knots; 3.1 m/s)
Visibility: 6 or more miles (10+ km)
Ceiling: at least 12,000 feet AGL
Clouds: few clouds at 1800 feet AGL
scattered clouds at 2000 feet AGL
Weather: no significant weather observed at this time

METAR text: EGNS 222150Z 30005KT 260V030 9999 SCT017 03/01 Q0997
Conditions at: EGNS (ISLE OF MAN/RONA, GB) observed 2150 UTC 22 January 2019
Temperature: 3.0°C (37°F)
Dewpoint: 1.0°C (34°F) [RH = 87%]
Pressure (altimeter): 29.44 inches Hg (997.0 mb)
Winds: from the WNW (300 degrees) at 6 MPH (5 knots; 2.6 m/s)
Visibility: 6 or more miles (10+ km)
Ceiling: at least 12,000 feet AGL
Clouds: scattered clouds at 1700 feet AGL
Weather: no significant weather observed at this time

METAR text: EGNS 222050Z 30007KT 230V360 9999 FEW016CB BKN022 03/00 Q0997 NOSIG
Conditions at: EGNS (ISLE OF MAN/RONA, GB) observed 2050 UTC 22 January 2019
Temperature: 3.0°C (37°F)
Dewpoint: 0.0°C (32°F) [RH = 81%]
Pressure (altimeter): 29.44 inches Hg (997.0 mb)
Winds: from the WNW (300 degrees) at 8 MPH (7 knots; 3.6 m/s)
Visibility: 6 or more miles (10+ km)
Ceiling: 2200 feet AGL
Clouds: few clouds at 1600 feet AGL
broken clouds at 2200 feet AGL
Weather: no significant weather observed at this time

METAR text: EGNS 222020Z 29010KT 250V340 9999 FEW018CB SCT022 04/00 Q0997 NOSIG
Conditions at: EGNS (ISLE OF MAN/RONA, GB) observed 2020 UTC 22 January 2019
Temperature: 4.0°C (39°F)
Dewpoint: 0.0°C (32°F) [RH = 75%]
Pressure (altimeter): 29.44 inches Hg (997.0 mb)
Winds: from the WNW (290 degrees) at 12 MPH (10 knots; 5.1 m/s)
Visibility: 6 or more miles (10+ km)
Ceiling: at least 12,000 feet AGL
Clouds: few clouds at 1800 feet AGL
scattered clouds at 2200 feet AGL
Weather: no significant weather observed at this time

METAR text: EGNS 221950Z 30010KT 250V340 9999 SCT018 04/01 Q0996
Conditions at: EGNS (ISLE OF MAN/RONA, GB) observed 1950 UTC 22 January 2019
Temperature: 4.0°C (39°F)
Dewpoint: 1.0°C (34°F) [RH = 81%]
Pressure (altimeter): 29.41 inches Hg (996.0 mb)
Winds: from the WNW (300 degrees) at 12 MPH (10 knots; 5.1 m/s)
Visibility: 6 or more miles (10+ km)
Ceiling: at least 12,000 feet AGL
Clouds: scattered clouds at 1800 feet AGL
Weather: no significant weather observed at this time

METAR text: EGNS 221920Z 30013KT 250V330 9999 FEW018 03/00 Q0996 NOSIG
Conditions at: EGNS (ISLE OF MAN/RONA, GB) observed 1920 UTC 22 January 2019
Temperature: 3.0°C (37°F)
Dewpoint: 0.0°C (32°F) [RH = 81%]
Pressure (altimeter): 29.41 inches Hg (996.0 mb)
Winds: from the WNW (300 degrees) at 15 MPH (13 knots; 6.7 m/s)
Visibility: 6 or more miles (10+ km)
Ceiling: at least 12,000 feet AGL
Clouds: few clouds at 1800 feet AGL
Weather: no significant weather observed at this time

METAR text: EGNS 221850Z 29012KT 250V340 9999 SCT014CB 04/01 Q0996 TEMPO 4000 SHRASN BKN014CB
Conditions at: EGNS (ISLE OF MAN/RONA, GB) observed 1850 UTC 22 January 2019
Temperature: 4.0°C (39°F)
Dewpoint: 1.0°C (34°F) [RH = 81%]
Pressure (altimeter): 29.41 inches Hg (996.0 mb)
Winds: from the WNW (290 degrees) at 14 MPH (12 knots; 6.2 m/s)
Visibility: 6 or more miles (10+ km)
Ceiling: at least 12,000 feet AGL
Clouds: scattered clouds at 1400 feet AGL
Weather: no significant weather observed at this time

METAR text: EGNS 221820Z 29010KT 250V330 9999 FEW020CB SCT025 04/00 Q0996 NOSIG
Conditions at: EGNS (ISLE OF MAN/RONA, GB) observed 1820 UTC 22 January 2019
Temperature: 4.0°C (39°F)
Dewpoint: 0.0°C (32°F) [RH = 75%]
Pressure (altimeter): 29.41 inches Hg (996.0 mb)
Winds: from the WNW (290 degrees) at 12 MPH (10 knots; 5.1 m/s)
Visibility: 6 or more miles (10+ km)
Ceiling: at least 12,000 feet AGL
Clouds: few clouds at 2000 feet AGL
scattered clouds at 2500 feet AGL
Weather: no significant weather observed at this time

METAR text: EGNS 221750Z 29013G24KT 250V330 9999 FEW020CB SCT025 04/00 Q0996 TEMPO 4000 SHRASN BKN014
Conditions at: EGNS (ISLE OF MAN/RONA, GB) observed 1750 UTC 22 January 2019
Temperature: 4.0°C (39°F)
Dewpoint: 0.0°C (32°F) [RH = 75%]
Pressure (altimeter): 29.41 inches Hg (996.0 mb)
Winds: from the WNW (290 degrees) at 15 MPH (13 knots; 6.7 m/s)
gusting to 28 MPH (24 knots; 12.3 m/s)
Visibility: 6 or more miles (10+ km)
Ceiling: at least 12,000 feet AGL
Clouds: few clouds at 2000 feet AGL
scattered clouds at 2500 feet AGL
Weather: no significant weather observed at this time

METAR text: EGNS 221720Z 29010KT 260V340 9999 FEW020CB SCT028 05/M00 Q0996 NOSIG
Conditions at: EGNS (ISLE OF MAN/RONA, GB) observed 1720 UTC 22 January 2019
Temperature: 5.0°C (41°F)
Dewpoint: 0.0°C (32°F) [RH = 70%]
Pressure (altimeter): 29.41 inches Hg (996.0 mb)
Winds: from the WNW (290 degrees) at 12 MPH (10 knots; 5.1 m/s)
Visibility: 6 or more miles (10+ km)
Ceiling: at least 12,000 feet AGL
Clouds: few clouds at 2000 feet AGL
scattered clouds at 2800 feet AGL
Weather: no significant weather observed at this time

METAR text: EGNS 221650Z 29012KT 250V340 9999 FEW020CB 05/M01 Q0996 TEMPO 4000 SHRASN BKN014CB
Conditions at: EGNS (ISLE OF MAN/RONA, GB) observed 1650 UTC 22 January 2019
Temperature: 5.0°C (41°F)
Dewpoint: -1.0°C (30°F) [RH = 65%]
Pressure (altimeter): 29.41 inches Hg (996.0 mb)
Winds: from the WNW (290 degrees) at 14 MPH (12 knots; 6.2 m/s)
Visibility: 6 or more miles (10+ km)
Ceiling: at least 12,000 feet AGL
Clouds: few clouds at 2000 feet AGL
Weather: no significant weather observed at this time

METAR text: EGNS 221620Z 29011KT 250V330 9999 FEW020CB 04/M01 Q0997 NOSIG
Conditions at: EGNS (ISLE OF MAN/RONA, GB) observed 1620 UTC 22 January 2019
Temperature: 4.0°C (39°F)
Dewpoint: -1.0°C (30°F) [RH = 70%]
Pressure (altimeter): 29.44 inches Hg (997.0 mb)
Winds: from the WNW (290 degrees) at 13 MPH (11 knots; 5.7 m/s)
Visibility: 6 or more miles (10+ km)
Ceiling: at least 12,000 feet AGL
Clouds: few clouds at 2000 feet AGL
Weather: no significant weather observed at this time

METAR text: EGNS 221550Z 29012KT 260V340 9999 FEW020CB 05/M01 Q0997 NOSIG
Conditions at: EGNS (ISLE OF MAN/RONA, GB) observed 1550 UTC 22 January 2019
Temperature: 5.0°C (41°F)
Dewpoint: -1.0°C (30°F) [RH = 65%]
Pressure (altimeter): 29.44 inches Hg (997.0 mb)
Winds: from the WNW (290 degrees) at 14 MPH (12 knots; 6.2 m/s)
Visibility: 6 or more miles (10+ km)
Ceiling: at least 12,000 feet AGL
Clouds: few clouds at 2000 feet AGL
Weather: no significant weather observed at this time

METAR text: EGNS 221520Z 29012KT 240V340 9999 FEW025 05/M00 Q0997 NOSIG
Conditions at: EGNS (ISLE OF MAN/RONA, GB) observed 1520 UTC 22 January 2019
Temperature: 5.0°C (41°F)
Dewpoint: 0.0°C (32°F) [RH = 70%]
Pressure (altimeter): 29.44 inches Hg (997.0 mb)
Winds: from the WNW (290 degrees) at 14 MPH (12 knots; 6.2 m/s)
Visibility: 6 or more miles (10+ km)
Ceiling: at least 12,000 feet AGL
Clouds: few clouds at 2500 feet AGL
Weather: no significant weather observed at this time

METAR text: EGNS 221450Z 30011KT 250V340 9999 FEW020 05/00 Q0997 NOSIG
Conditions at: EGNS (ISLE OF MAN/RONA, GB) observed 1450 UTC 22 January 2019
Temperature: 5.0°C (41°F)
Dewpoint: 0.0°C (32°F) [RH = 70%]
Pressure (altimeter): 29.44 inches Hg (997.0 mb)
Winds: from the WNW (300 degrees) at 13 MPH (11 knots; 5.7 m/s)
Visibility: 6 or more miles (10+ km)
Ceiling: at least 12,000 feet AGL
Clouds: few clouds at 2000 feet AGL
Weather: no significant weather observed at this time

METAR text: EGNS 221420Z 29011KT 250V340 9999 FEW020 04/00 Q0997 NOSIG
Conditions at: EGNS (ISLE OF MAN/RONA, GB) observed 1420 UTC 22 January 2019
Temperature: 4.0°C (39°F)
Dewpoint: 0.0°C (32°F) [RH = 75%]
Pressure (altimeter): 29.44 inches Hg (997.0 mb)
Winds: from the WNW (290 degrees) at 13 MPH (11 knots; 5.7 m/s)
Visibility: 6 or more miles (10+ km)
Ceiling: at least 12,000 feet AGL
Clouds: few clouds at 2000 feet AGL
Weather: no significant weather observed at this time

METAR text: EGNS 221350Z 29012KT 250V340 9999 FEW018 05/01 Q0997 NOSIG
Conditions at: EGNS (ISLE OF MAN/RONA, GB) observed 1350 UTC 22 January 2019
Temperature: 5.0°C (41°F)
Dewpoint: 1.0°C (34°F) [RH = 75%]
Pressure (altimeter): 29.44 inches Hg (997.0 mb)
Winds: from the WNW (290 degrees) at 14 MPH (12 knots; 6.2 m/s)
Visibility: 6 or more miles (10+ km)
Ceiling: at least 12,000 feet AGL
Clouds: few clouds at 1800 feet AGL
Weather: no significant weather observed at this time

METAR text: EGNS 221320Z 29012KT 240V330 9999 FEW018 05/01 Q0997 NOSIG
Conditions at: EGNS (ISLE OF MAN/RONA, GB) observed 1320 UTC 22 January 2019
Temperature: 5.0°C (41°F)
Dewpoint: 1.0°C (34°F) [RH = 75%]
Pressure (altimeter): 29.44 inches Hg (997.0 mb)
Winds: from the WNW (290 degrees) at 14 MPH (12 knots; 6.2 m/s)
Visibility: 6 or more miles (10+ km)
Ceiling: at least 12,000 feet AGL
Clouds: few clouds at 1800 feet AGL
Weather: no significant weather observed at this time

METAR text: EGNS 221250Z 29009KT 240V350 9999 FEW018 05/01 Q0997 NOSIG
Conditions at: EGNS (ISLE OF MAN/RONA, GB) observed 1250 UTC 22 January 2019
Temperature: 5.0°C (41°F)
Dewpoint: 1.0°C (34°F) [RH = 75%]
Pressure (altimeter): 29.44 inches Hg (997.0 mb)
Winds: from the WNW (290 degrees) at 10 MPH (9 knots; 4.6 m/s)
Visibility: 6 or more miles (10+ km)
Ceiling: at least 12,000 feet AGL
Clouds: few clouds at 1800 feet AGL
Weather: no significant weather observed at this time

METAR text: EGNS 221220Z 29014KT 250V340 9999 FEW020 04/01 Q0998 NOSIG
Conditions at: EGNS (ISLE OF MAN/RONA, GB) observed 1220 UTC 22 January 2019
Temperature: 4.0°C (39°F)
Dewpoint: 1.0°C (34°F) [RH = 81%]
Pressure (altimeter): 29.47 inches Hg (998.0 mb)
Winds: from the WNW (290 degrees) at 16 MPH (14 knots; 7.2 m/s)
Visibility: 6 or more miles (10+ km)
Ceiling: at least 12,000 feet AGL
Clouds: few clouds at 2000 feet AGL
Weather: no significant weather observed at this time

METAR text: EGNS 221150Z 29012G23KT 250V340 9999 FEW020 05/00 Q0998 NOSIG
Conditions at: EGNS (ISLE OF MAN/RONA, GB) observed 1150 UTC 22 January 2019
Temperature: 5.0°C (41°F)
Dewpoint: 0.0°C (32°F) [RH = 70%]
Pressure (altimeter): 29.47 inches Hg (998.0 mb)
Winds: from the WNW (290 degrees) at 14 MPH (12 knots; 6.2 m/s)
gusting to 26 MPH (23 knots; 11.8 m/s)
Visibility: 6 or more miles (10+ km)
Ceiling: at least 12,000 feet AGL
Clouds: few clouds at 2000 feet AGL
Weather: no significant weather observed at this time

METAR text: EGNS 221120Z 30012KT 250V340 9999 SCT020 04/M00 Q0998 NOSIG
Conditions at: EGNS (ISLE OF MAN/RONA, GB) observed 1120 UTC 22 January 2019
Temperature: 4.0°C (39°F)
Dewpoint: 0.0°C (32°F) [RH = 75%]
Pressure (altimeter): 29.47 inches Hg (998.0 mb)
Winds: from the WNW (300 degrees) at 14 MPH (12 knots; 6.2 m/s)
Visibility: 6 or more miles (10+ km)
Ceiling: at least 12,000 feet AGL
Clouds: scattered clouds at 2000 feet AGL
Weather: no significant weather observed at this time

METAR text: EGNS 221050Z 26010KT 210V300 9999 BKN020 04/01 Q0998 NOSIG
Conditions at: EGNS (ISLE OF MAN/RONA, GB) observed 1050 UTC 22 January 2019
Temperature: 4.0°C (39°F)
Dewpoint: 1.0°C (34°F) [RH = 81%]
Pressure (altimeter): 29.47 inches Hg (998.0 mb)
Winds: from the W (260 degrees) at 12 MPH (10 knots; 5.1 m/s)
Visibility: 6 or more miles (10+ km)
Ceiling: 2000 feet AGL
Clouds: broken clouds at 2000 feet AGL
Weather: no significant weather observed at this time

METAR text: EGNS 221020Z 27010KT 240V300 9999 FEW017CB 04/01 Q0999 NOSIG
Conditions at: EGNS (ISLE OF MAN/RONA, GB) observed 1020 UTC 22 January 2019
Temperature: 4.0°C (39°F)
Dewpoint: 1.0°C (34°F) [RH = 81%]
Pressure (altimeter): 29.50 inches Hg (999.0 mb)
Winds: from the W (270 degrees) at 12 MPH (10 knots; 5.1 m/s)
Visibility: 6 or more miles (10+ km)
Ceiling: at least 12,000 feet AGL
Clouds: few clouds at 1700 feet AGL
Weather: no significant weather observed at this time

METAR text: EGNS 220950Z 27012KT 220V300 9999 SCT017 04/01 Q0999 NOSIG
Conditions at: EGNS (ISLE OF MAN/RONA, GB) observed 0950 UTC 22 January 2019
Temperature: 4.0°C (39°F)
Dewpoint: 1.0°C (34°F) [RH = 81%]
Pressure (altimeter): 29.50 inches Hg (999.0 mb)
Winds: from the W (270 degrees) at 14 MPH (12 knots; 6.2 m/s)
Visibility: 6 or more miles (10+ km)
Ceiling: at least 12,000 feet AGL
Clouds: scattered clouds at 1700 feet AGL
Weather: no significant weather observed at this time

METAR text: EGNS 220920Z 27014KT 230V300 9999 FEW017 04/01 Q0999 RESHRA NOSIG
Conditions at: EGNS (ISLE OF MAN/RONA, GB) observed 0920 UTC 22 January 2019
Temperature: 4.0°C (39°F)
Dewpoint: 1.0°C (34°F) [RH = 81%]
Pressure (altimeter): 29.50 inches Hg (999.0 mb)
Winds: from the W (270 degrees) at 16 MPH (14 knots; 7.2 m/s)
Visibility: 6 or more miles (10+ km)
Ceiling: at least 12,000 feet AGL
Clouds: few clouds at 1700 feet AGL
Weather: no significant weather observed at this time

METAR text: EGNS 220850Z 26012KT 230V300 9999 9000N -SHRA SCT017 04/01 Q0999 TEMPO 4000 SHRASN
Conditions at: EGNS (ISLE OF MAN/RONA, GB) observed 0850 UTC 22 January 2019
Temperature: 4.0°C (39°F)
Dewpoint: 1.0°C (34°F) [RH = 81%]
Pressure (altimeter): 29.50 inches Hg (999.0 mb)
Winds: from the W (260 degrees) at 14 MPH (12 knots; 6.2 m/s)
Visibility: 6 or more miles (10+ km)
Ceiling: at least 12,000 feet AGL
Clouds: scattered clouds at 1700 feet AGL
Weather: -SHRA  (light rain showers)

METAR text: EGNS 220820Z 27014KT 240V300 9999 SCT017 04/01 Q1000 TEMPO 4000 SHRASN BKN012
Conditions at: EGNS (ISLE OF MAN/RONA, GB) observed 0820 UTC 22 January 2019
Temperature: 4.0°C (39°F)
Dewpoint: 1.0°C (34°F) [RH = 81%]
Pressure (altimeter): 29.53 inches Hg (1000.0 mb)
Winds: from the W (270 degrees) at 16 MPH (14 knots; 7.2 m/s)
Visibility: 6 or more miles (10+ km)
Ceiling: at least 12,000 feet AGL
Clouds: scattered clouds at 1700 feet AGL
Weather: no significant weather observed at this time

METAR text: EGNS 220750Z 27012KT 230V300 9999 FEW017 04/00 Q1000 ` TEMPO 4000 SHRASN BKN012
Conditions at: EGNS (ISLE OF MAN/RONA, GB) observed 0750 UTC 22 January 2019
Temperature: 4.0°C (39°F)
Dewpoint: 0.0°C (32°F) [RH = 75%]
Pressure (altimeter): 29.53 inches Hg (1000.0 mb)
Winds: from the W (270 degrees) at 14 MPH (12 knots; 6.2 m/s)
Visibility: 6 or more miles (10+ km)
Ceiling: at least 12,000 feet AGL
Clouds: few clouds at 1700 feet AGL
Weather: no significant weather observed at this time

METAR text: EGNS 220720Z 27010KT 230V300 9999 FEW017 04/01 Q1000 NOSIG
Conditions at: EGNS (ISLE OF MAN/RONA, GB) observed 0720 UTC 22 January 2019
Temperature: 4.0°C (39°F)
Dewpoint: 1.0°C (34°F) [RH = 81%]
Pressure (altimeter): 29.53 inches Hg (1000.0 mb)
Winds: from the W (270 degrees) at 12 MPH (10 knots; 5.1 m/s)
Visibility: 6 or more miles (10+ km)
Ceiling: at least 12,000 feet AGL
Clouds: few clouds at 1700 feet AGL
Weather: no significant weather observed at this time

METAR text: EGNS 220650Z 28010KT 240V320 9999 SCT017 04/01 Q1000
Conditions at: EGNS (ISLE OF MAN/RONA, GB) observed 0650 UTC 22 January 2019
Temperature: 4.0°C (39°F)
Dewpoint: 1.0°C (34°F) [RH = 81%]
Pressure (altimeter): 29.53 inches Hg (1000.0 mb)
Winds: from the W (280 degrees) at 12 MPH (10 knots; 5.1 m/s)
Visibility: 6 or more miles (10+ km)
Ceiling: at least 12,000 feet AGL
Clouds: scattered clouds at 1700 feet AGL
Weather: no significant weather observed at this time

METAR text: EGNS 220620Z 27013KT 220V300 9999 SCT016 04/01 Q1000 NOSIG
Conditions at: EGNS (ISLE OF MAN/RONA, GB) observed 0620 UTC 22 January 2019
Temperature: 4.0°C (39°F)
Dewpoint: 1.0°C (34°F) [RH = 81%]
Pressure (altimeter): 29.53 inches Hg (1000.0 mb)
Winds: from the W (270 degrees) at 15 MPH (13 knots; 6.7 m/s)
Visibility: 6 or more miles (10+ km)
Ceiling: at least 12,000 feet AGL
Clouds: scattered clouds at 1600 feet AGL
Weather: no significant weather observed at this time

METAR text: EGNS 220550Z 29012G22KT 250V340 9999 FEW022 04/M00 Q1000 NOSIG
Conditions at: EGNS (ISLE OF MAN/RONA, GB) observed 0550 UTC 22 January 2019
Temperature: 4.0°C (39°F)
Dewpoint: 0.0°C (32°F) [RH = 75%]
Pressure (altimeter): 29.53 inches Hg (1000.0 mb)
Winds: from the WNW (290 degrees) at 14 MPH (12 knots; 6.2 m/s)
gusting to 25 MPH (22 knots; 11.3 m/s)
Visibility: 6 or more miles (10+ km)
Ceiling: at least 12,000 feet AGL
Clouds: few clouds at 2200 feet AGL
Weather: no significant weather observed at this time

METAR text: EGNS 220520Z 29015KT 260V320 9999 SCT020 04/M00 Q1001 NOSIG
Conditions at: EGNS (ISLE OF MAN/RONA, GB) observed 0520 UTC 22 January 2019
Temperature: 4.0°C (39°F)
Dewpoint: 0.0°C (32°F) [RH = 75%]
Pressure (altimeter): 29.56 inches Hg (1001.0 mb)
Winds: from the WNW (290 degrees) at 17 MPH (15 knots; 7.7 m/s)
Visibility: 6 or more miles (10+ km)
Ceiling: at least 12,000 feet AGL
Clouds: scattered clouds at 2000 feet AGL
Weather: no significant weather observed at this time

METAR text: EGNS 220450Z 28015KT 250V330 9999 SCT018 04/01 Q1000
Conditions at: EGNS (ISLE OF MAN/RONA, GB) observed 0450 UTC 22 January 2019
Temperature: 4.0°C (39°F)
Dewpoint: 1.0°C (34°F) [RH = 81%]
Pressure (altimeter): 29.53 inches Hg (1000.0 mb)
Winds: from the W (280 degrees) at 17 MPH (15 knots; 7.7 m/s)
Visibility: 6 or more miles (10+ km)
Ceiling: at least 12,000 feet AGL
Clouds: scattered clouds at 1800 feet AGL
Weather: no significant weather observed at this time

METAR text: EGNS 220350Z 29016KT 260V330 9999 FEW020 04/01 Q1000
Conditions at: EGNS (ISLE OF MAN/RONA, GB) observed 0350 UTC 22 January 2019
Temperature: 4.0°C (39°F)
Dewpoint: 1.0°C (34°F) [RH = 81%]
Pressure (altimeter): 29.53 inches Hg (1000.0 mb)
Winds: from the WNW (290 degrees) at 18 MPH (16 knots; 8.2 m/s)
Visibility: 6 or more miles (10+ km)
Ceiling: at least 12,000 feet AGL
Clouds: few clouds at 2000 feet AGL
Weather: no significant weather observed at this time

METAR text: EGNS 220250Z 29018KT 260V330 9999 SCT020 04/01 Q1001
Conditions at: EGNS (ISLE OF MAN/RONA, GB) observed 0250 UTC 22 January 2019
Temperature: 4.0°C (39°F)
Dewpoint: 1.0°C (34°F) [RH = 81%]
Pressure (altimeter): 29.56 inches Hg (1001.0 mb)
Winds: from the WNW (290 degrees) at 21 MPH (18 knots; 9.3 m/s)
Visibility: 6 or more miles (10+ km)
Ceiling: at least 12,000 feet AGL
Clouds: scattered clouds at 2000 feet AGL
Weather: no significant weather observed at this time

METAR text: EGNS 220150Z 29014KT 250V330 9999 FEW022 05/00 Q1002
Conditions at: EGNS (ISLE OF MAN/RONA, GB) observed 0150 UTC 22 January 2019
Temperature: 5.0°C (41°F)
Dewpoint: 0.0°C (32°F) [RH = 70%]
Pressure (altimeter): 29.59 inches Hg (1002.0 mb)
Winds: from the WNW (290 degrees) at 16 MPH (14 knots; 7.2 m/s)
Visibility: 6 or more miles (10+ km)
Ceiling: at least 12,000 feet AGL
Clouds: few clouds at 2200 feet AGL
Weather: no significant weather observed at this time

Forecast for: EGNS (ISLE OF MAN/RONA, GB)
Text: TAF EGNS 231100Z 2312/2321 31012KT 9999 SCT018
Forecast period: 1200 to 2100 UTC 23 January 2019
Forecast type: FROM: standard forecast or significant change
Winds: from the NW (310 degrees) at 14 MPH (12 knots; 6.2 m/s)
Visibility: 6 or more miles 10+ km)
Ceiling: at least 12,000 feet AGL
Clouds: scattered clouds at 1800 feet AGL
Weather: no significant weather forecast for this period